Time;durP1;ratioP1;P1;durP2;ratioP2;P2;SDS_P1;SDS_P2;PMS_P1;PMS_P2;Temp;Humidity;BMP_temperature;BMP_pressure;BME280_temperature;BME280_humidity;BME280_pressure;Samples;Min_cycle;Max_cycle;Signal;HPM_P1;HPM_P2
2021/03/27 00:01:52;;;;;;;88.82;49.13;;;205.60;1382.40;;;;;;5092470;28;20384;-70
2021/03/27 00:04:42;;;;;;;81.25;46.22;;;205.60;1408.00;;;;;;5092855;28;20103;-74
2021/03/27 00:07:10;;;;;;;88.57;47.10;;;205.60;1408.00;;;;;;5092055;28;20484;-75
2021/03/27 00:09:39;;;;;;;84.93;49.70;;;205.50;1408.00;;;;;;5093007;28;20637;-73
2021/03/27 00:12:24;;;;;;;103.30;56.53;;;205.50;1408.00;;;;;;5092498;28;20028;-77
2021/03/27 00:14:56;;;;;;;112.55;59.25;;;205.40;1408.00;;;;;;5092191;28;20519;-75
2021/03/27 00:17:46;;;;;;;109.53;58.45;;;205.30;1408.00;;;;;;5092553;28;20040;-71
2021/03/27 00:20:17;;;;;;;101.90;54.55;;;205.30;1433.60;;;;;;5092907;28;20035;-74
2021/03/27 00:22:56;;;;;;;120.93;60.25;;;205.30;1459.20;;;;;;5092500;28;20141;-75
2021/03/27 00:25:24;;;;;;;115.00;57.80;;;205.20;1433.60;;;;;;5092261;28;20081;-68
2021/03/27 00:28:08;;;;;;;93.78;49.50;;;205.20;1459.20;;;;;;5092605;28;20027;-73
2021/03/27 00:30:47;;;;;;;70.18;41.08;;;205.20;1459.20;;;;;;5092314;28;20020;-72
2021/03/27 00:33:14;;;;;;;66.95;35.47;;;205.30;1433.60;;;;;;5092578;28;20028;-63
2021/03/27 00:35:44;;;;;;;55.63;33.60;;;205.20;1433.60;;;;;;5091699;28;20384;-74
2021/03/27 00:38:15;;;;;;;60.42;35.55;;;205.30;1433.60;;;;;;5092509;28;20028;-73
2021/03/27 00:40:45;;;;;;;58.15;35.33;;;205.30;1433.60;;;;;;5092417;28;20368;-74
2021/03/27 00:43:25;;;;;;;54.25;33.13;;;205.30;1433.60;;;;;;5096281;28;20108;-62
2021/03/27 00:45:55;;;;;;;54.20;33.10;;;205.30;1408.00;;;;;;5095478;28;20028;-72
2021/03/27 00:48:37;;;;;;;57.90;33.10;;;205.30;1382.40;;;;;;5091911;28;20031;-75
2021/03/27 00:51:10;;;;;;;60.28;33.08;;;205.30;1382.40;;;;;;5095615;28;20469;-70
2021/03/27 00:53:41;;;;;;;59.13;36.08;;;205.30;1408.00;;;;;;5096032;28;20056;-74
2021/03/27 00:56:26;;;;;;;68.57;37.13;;;205.30;1408.00;;;;;;5080338;28;20032;-74
2021/03/27 00:59:00;;;;;;;60.15;34.80;;;205.30;1382.40;;;;;;5075596;28;20150;-74
2021/03/27 01:01:32;;;;;;;63.55;37.70;;;205.30;1408.00;;;;;;5075418;28;20676;-64
2021/03/27 01:04:01;;;;;;;64.25;38.30;;;205.40;1408.00;;;;;;5075183;28;20115;-69
2021/03/27 01:06:49;;;;;;;59.80;38.25;;;205.30;1408.00;;;;;;5075210;28;20024;-74
2021/03/27 01:09:18;;;;;;;62.95;38.70;;;205.30;1433.60;;;;;;5057108;28;20031;-63
2021/03/27 01:12:00;;;;;;;66.57;39.42;;;205.30;1408.00;;;;;;5075283;28;20035;-67
2021/03/27 01:14:33;;;;;;;57.03;36.78;;;205.20;1408.00;;;;;;5074871;28;20503;-71
2021/03/27 01:17:02;;;;;;;71.38;40.30;;;205.10;1408.00;;;;;;5057142;28;20389;-73
2021/03/27 01:19:39;;;;;;;62.13;37.35;;;205.20;1408.00;;;;;;5075003;28;20025;-74
2021/03/27 01:22:12;;;;;;;64.35;38.15;;;205.10;1408.00;;;;;;5075062;28;20055;-77
2021/03/27 01:24:38;;;;;;;57.97;35.58;;;205.10;1433.60;;;;;;5056768;28;20473;-73
2021/03/27 01:27:12;;;;;;;58.53;36.22;;;205.20;1433.60;;;;;;5075349;28;20025;-74
2021/03/27 01:29:46;;;;;;;61.08;35.00;;;205.10;1408.00;;;;;;5074794;28;20074;-64
2021/03/27 01:32:19;;;;;;;49.75;33.15;;;205.20;1408.00;;;;;;5075115;28;20052;-69
2021/03/27 01:35:00;;;;;;;55.42;34.97;;;205.20;1408.00;;;;;;5074861;28;20017;-72
2021/03/27 01:37:32;;;;;;;54.65;33.92;;;205.10;1408.00;;;;;;5074839;28;20044;-74
2021/03/27 01:40:19;;;;;;;57.25;35.13;;;205.10;1408.00;;;;;;5056786;28;20025;-63
2021/03/27 01:43:16;;;;;;;59.22;36.38;;;205.20;1408.00;;;;;;5074831;28;20040;-75
2021/03/27 01:45:55;;;;;;;85.05;41.70;;;205.20;1408.00;;;;;;5074685;28;20039;-74
2021/03/27 01:48:46;;;;;;;70.38;38.05;;;205.20;1382.40;;;;;;5074803;28;20024;-73
2021/03/27 01:51:48;;;;;;;61.70;36.67;;;205.30;1382.40;;;;;;5074555;28;20033;-71
2021/03/27 01:54:21;;;;;;;59.60;34.25;;;205.30;1408.00;;;;;;5093411;28;20028;-73
2021/03/27 01:57:19;;;;;;;67.57;37.87;;;205.20;1408.00;;;;;;5094427;28;20072;-73
2021/03/27 01:59:52;;;;;;;67.18;37.83;;;205.30;1382.40;;;;;;5094903;28;20237;-72
2021/03/27 02:02:42;;;;;;;61.05;37.13;;;205.30;1356.80;;;;;;5094289;28;20024;-71
2021/03/27 02:05:14;;;;;;;63.97;37.47;;;205.30;1382.40;;;;;;5094936;28;20046;-73
2021/03/27 02:07:49;;;;;;;64.57;36.53;;;205.30;1382.40;;;;;;5094000;28;20028;-66
2021/03/27 02:10:42;;;;;;;57.60;36.63;;;205.30;1382.40;;;;;;5094427;28;20024;-72
2021/03/27 02:13:28;;;;;;;65.68;39.15;;;205.30;1408.00;;;;;;5094178;28;20035;-74
2021/03/27 02:16:29;;;;;;;59.83;36.47;;;205.00;1408.00;;;;;;5094109;28;20051;-73
2021/03/27 02:19:13;;;;;;;60.05;36.78;;;204.80;1433.60;;;;;;5093826;28;20028;-73
2021/03/27 02:22:06;;;;;;;62.53;38.08;;;204.80;1459.20;;;;;;5094341;28;20048;-73
2021/03/27 02:25:03;;;;;;;65.70;37.88;;;204.80;1459.20;;;;;;5093782;28;20068;-73
2021/03/27 02:27:52;;;;;;;65.20;38.75;;;180.10;1459.20;;;;;;5077764;28;20028;-73
2021/03/27 02:30:21;;;;;;;63.30;37.63;;;180.00;1459.20;;;;;;5051809;28;20036;-65
2021/03/27 02:33:17;;;;;;;64.03;39.13;;;180.00;1459.20;;;;;;5094071;28;20028;-73
2021/03/27 02:35:55;;;;;;;66.10;38.60;;;179.80;1459.20;;;;;;5093506;28;20476;-76
2021/03/27 02:38:44;;;;;;;67.78;41.72;;;179.70;1459.20;;;;;;5093676;28;20499;-75
2021/03/27 02:41:32;;;;;;;64.70;38.78;;;179.80;1484.80;;;;;;5093451;28;20024;-69
2021/03/27 02:44:20;;;;;;;68.38;38.78;;;179.80;1484.80;;;;;;5093803;28;20066;-73
2021/03/27 02:46:49;;;;;;;62.70;38.17;;;179.80;1459.20;;;;;;5093398;28;20023;-68
2021/03/27 02:49:48;;;;;;;66.50;37.75;;;179.70;1484.80;;;;;;5093680;28;20073;-63
2021/03/27 02:52:36;;;;;;;67.82;40.38;;;179.70;1484.80;;;;;;5093230;28;20477;-72
2021/03/27 02:55:10;;;;;;;62.97;38.60;;;179.70;1484.80;;;;;;5093712;28;20035;-72
2021/03/27 02:57:44;;;;;;;66.10;41.75;;;179.70;1484.80;;;;;;5093015;28;20030;-63
2021/03/27 03:00:10;;;;;;;;;;;179.70;1484.80;;;;;;5094051;28;20077;-74
2021/03/27 03:02:52;;;;;;;63.35;40.47;;;179.70;1484.80;;;;;;5093177;28;19939;-73
2021/03/27 03:05:22;;;;;;;66.70;39.08;;;179.70;1484.80;;;;;;5092912;28;20103;-73
2021/03/27 03:08:06;;;;;;;68.68;41.00;;;179.60;1484.80;;;;;;5092994;28;20583;-72
2021/03/27 03:10:50;;;;;;;67.22;39.63;;;179.50;1484.80;;;;;;5093292;28;20484;-71
2021/03/27 03:13:33;;;;;;;65.95;37.83;;;179.50;1510.40;;;;;;5093167;28;20510;-64
2021/03/27 03:16:14;;;;;;;61.85;38.90;;;179.60;1510.40;;;;;;5093056;28;20036;-73
2021/03/27 03:19:03;;;;;;;65.30;39.17;;;179.60;1510.40;;;;;;5093156;28;20024;-74
2021/03/27 03:21:38;;;;;;;64.82;37.88;;;179.60;1510.40;;;;;;5067084;28;20055;-73
2021/03/27 03:24:10;;;;;;;67.20;40.30;;;179.60;1510.40;;;;;;5072793;28;20017;-72
2021/03/27 03:27:12;;;;;;;63.33;39.95;;;179.60;1536.00;;;;;;5072635;28;20381;-73
2021/03/27 03:29:40;;;;;;;62.40;37.03;;;179.50;1510.40;;;;;;5064162;28;20032;-72
2021/03/27 03:32:28;;;;;;;61.75;37.60;;;179.60;1510.40;;;;;;5072631;28;20702;-70
2021/03/27 03:35:18;;;;;;;62.05;38.67;;;179.60;1510.40;;;;;;5072675;28;20426;-63
2021/03/27 03:38:08;;;;;;;55.40;34.60;;;179.60;1510.40;;;;;;5072543;28;20111;-63
2021/03/27 03:41:08;;;;;;;58.83;35.70;;;179.60;1510.40;;;;;;5054564;28;20037;-66
2021/03/27 03:43:45;;;;;;;59.72;33.20;;;179.50;1510.40;;;;;;5072531;28;20477;-63
2021/03/27 03:46:11;;;;;;;55.55;35.13;;;179.50;1510.40;;;;;;5072398;28;20028;-66
2021/03/27 03:48:43;;;;;;;53.78;33.25;;;179.60;1510.40;;;;;;5072141;28;20017;-73
2021/03/27 03:51:32;;;;;;;53.87;33.53;;;179.60;1510.40;;;;;;5085043;28;20028;-69
2021/03/27 03:54:23;;;;;;;50.20;32.70;;;179.60;1510.40;;;;;;5092526;28;20031;-73
2021/03/27 03:56:54;;;;;;;57.00;33.50;;;179.60;1510.40;;;;;;5092692;28;20042;-66
2021/03/27 03:59:55;;;;;;;55.08;34.05;;;179.60;1484.80;;;;;;5092193;28;20028;-73
2021/03/27 04:02:40;;;;;;;55.72;32.80;;;179.60;1484.80;;;;;;4991070;28;20049;-73
2021/03/27 04:05:47;;;;;;;56.53;34.20;;;179.60;1484.80;;;;;;4990984;28;20061;-70
2021/03/27 04:08:51;;;;;;;53.67;34.00;;;179.60;1484.80;;;;;;4990939;28;20430;-72
2021/03/27 04:11:40;;;;;;;52.67;31.70;;;179.70;1484.80;;;;;;4991113;28;20034;-73
2021/03/27 04:14:43;;;;;;;53.38;32.08;;;179.70;1484.80;;;;;;4990590;28;20350;-66
2021/03/27 04:17:50;;;;;;;50.00;32.17;;;179.70;1484.80;;;;;;4995010;28;20070;-73
2021/03/27 04:20:24;;;;;;;54.90;32.40;;;179.70;1484.80;;;;;;4993449;28;20038;-73
2021/03/27 04:23:00;;;;;;;59.00;34.78;;;179.60;1484.80;;;;;;4994748;28;20054;-73
2021/03/27 04:25:37;;;;;;;53.47;32.13;;;179.60;1484.80;;;;;;4994147;28;20034;-66
2021/03/27 04:28:40;;;;;;;55.28;32.80;;;179.60;1510.40;;;;;;4994631;28;20037;-73
2021/03/27 04:31:42;;;;;;;55.22;32.85;;;179.60;1536.00;;;;;;4993986;28;20042;-74
2021/03/27 04:34:26;;;;;;;54.72;32.65;;;179.60;1510.40;;;;;;4994577;28;20549;-73
2021/03/27 04:37:00;;;;;;;54.35;32.25;;;179.60;1510.40;;;;;;5001507;28;20514;-64
2021/03/27 04:39:51;;;;;;;53.25;31.98;;;179.60;1510.40;;;;;;5096225;28;20024;-74
2021/03/27 04:42:39;;;;;;;52.78;32.50;;;179.60;1510.40;;;;;;5095868;28;20465;-62
2021/03/27 04:45:32;;;;;;;57.33;32.88;;;179.70;1484.80;;;;;;5096374;28;20052;-73
2021/03/27 04:48:23;;;;;;;65.68;36.70;;;179.70;1484.80;;;;;;5095870;28;20019;-64
2021/03/27 04:51:14;;;;;;;106.28;58.70;;;179.80;1484.80;;;;;;5096024;28;20545;-70
2021/03/27 04:54:06;;;;;;;152.00;80.15;;;179.80;1459.20;;;;;;5095653;28;20024;-68
2021/03/27 04:56:44;;;;;;;228.35;120.78;;;179.80;1459.20;;;;;;5095969;28;20032;-64
2021/03/27 04:59:54;;;;;;;130.63;82.63;;;179.90;1459.20;;;;;;5095652;28;20020;-66
2021/03/27 05:02:58;;;;;;;81.97;52.28;;;179.80;1459.20;;;;;;5095869;28;20027;-72
2021/03/27 05:05:54;;;;;;;68.37;42.47;;;179.70;1459.20;;;;;;5084570;28;20464;-74
2021/03/27 05:08:35;;;;;;;85.68;50.10;;;179.50;1459.20;;;;;;5089148;28;20292;-69
2021/03/27 05:11:24;;;;;;;82.75;49.13;;;179.60;1459.20;;;;;;5095277;28;20032;-74
2021/03/27 05:14:00;;;;;;;83.35;46.88;;;179.70;1484.80;;;;;;5095884;28;20024;-62
2021/03/27 05:16:32;;;;;;;91.28;51.08;;;179.80;1459.20;;;;;;5095249;28;20059;-73
2021/03/27 05:19:13;;;;;;;89.43;50.80;;;179.80;1484.80;;;;;;5077473;28;20033;-73
2021/03/27 05:21:38;;;;;;;78.90;48.72;;;179.90;1484.80;;;;;;5094846;28;20059;-74
2021/03/27 05:24:13;;;;;;;75.20;43.92;;;180.00;1484.80;;;;;;5095440;28;20372;-72
2021/03/27 05:27:14;;;;;;;80.60;45.20;;;180.10;1459.20;;;;;;5094228;28;20059;-73
2021/03/27 05:30:11;;;;;;;84.03;45.28;;;204.80;1433.60;;;;;;5013011;28;20073;-73
2021/03/27 05:33:11;;;;;;;93.80;48.15;;;204.80;1433.60;;;;;;5012747;28;20066;-73
2021/03/27 05:35:56;;;;;;;88.03;44.97;;;204.80;1433.60;;;;;;5013028;28;20112;-73
2021/03/27 05:38:25;;;;;;;100.18;47.88;;;204.90;1433.60;;;;;;5012806;28;20457;-72
2021/03/27 05:41:29;;;;;;;101.15;46.58;;;204.90;1408.00;;;;;;5012946;28;20064;-73
2021/03/27 05:44:24;;;;;;;72.25;38.13;;;204.90;1408.00;;;;;;5012619;28;20042;-73
2021/03/27 05:47:43;;;;;;;66.22;36.72;;;204.90;1408.00;;;;;;5011801;28;20053;-73
2021/03/27 05:50:18;;;;;;;56.53;34.45;;;205.00;1433.60;;;;;;5012234;28;20137;-72
2021/03/27 05:53:24;;;;;;;62.55;35.05;;;205.00;1408.00;;;;;;5012346;28;20025;-71
2021/03/27 05:56:02;;;;;;;66.68;36.35;;;205.10;1408.00;;;;;;5012643;28;20037;-72
2021/03/27 05:58:36;;;;;;;64.50;36.80;;;205.20;1408.00;;;;;;5012251;28;20057;-74
2021/03/27 06:01:19;;;;;;;61.03;36.70;;;205.20;1408.00;;;;;;5001817;28;20086;-69
2021/03/27 06:04:09;;;;;;;71.50;38.88;;;205.30;1433.60;;;;;;5036335;28;20400;-63
2021/03/27 06:06:40;;;;;;;73.47;38.88;;;205.40;1408.00;;;;;;5074391;28;20031;-75
2021/03/27 06:09:15;;;;;;;65.90;36.30;;;205.40;1408.00;;;;;;5074251;28;20023;-74
2021/03/27 06:12:04;;;;;;;59.17;35.20;;;205.50;1433.60;;;;;;5097596;28;20106;-63
2021/03/27 06:14:42;;;;;;;66.38;36.30;;;205.60;1408.00;;;;;;5101450;28;20031;-71
2021/03/27 06:17:34;;;;;;;60.75;34.63;;;205.70;1408.00;;;;;;5088432;28;20489;-77
2021/03/27 06:20:33;;;;;;;57.47;32.90;;;230.40;1408.00;;;;;;5091517;28;20024;-75
2021/03/27 06:23:44;;;;;;;59.28;34.33;;;230.50;1408.00;;;;;;5091050;28;20044;-75
2021/03/27 06:26:37;;;;;;;68.68;34.80;;;230.60;1408.00;;;;;;5091621;28;20012;-73
2021/03/27 06:29:25;;;;;;;62.63;33.83;;;230.70;1408.00;;;;;;5092508;28;20023;-75
2021/03/27 06:32:28;;;;;;;62.58;33.65;;;230.90;1408.00;;;;;;5070775;28;20020;-75
2021/03/27 06:35:12;;;;;;;66.25;34.65;;;231.00;1408.00;;;;;;5089551;28;20090;-78
2021/03/27 06:37:57;;;;;;;70.85;38.25;;;231.10;1408.00;;;;;;5089951;28;20028;-78
2021/03/27 06:40:49;;;;;;;66.05;38.88;;;256.00;1408.00;;;;;;5086634;28;20020;-71
2021/03/27 06:43:27;;;;;;;54.72;35.00;;;332.80;1228.80;;;;;;5071315;28;20024;-72
2021/03/27 06:46:16;;;;;;;52.28;33.67;;;384.80;998.40;;;;;;5091408;28;20020;-70
2021/03/27 06:49:03;;;;;;;60.00;37.03;;;461.00;896.00;;;;;;5090427;28;20072;-71
2021/03/27 06:52:05;;;;;;;55.47;35.60;;;512.10;768.00;;;;;;5086563;28;20028;-74
2021/03/27 06:55:00;;;;;;;50.20;37.72;;;563.50;742.40;;;;;;5087203;28;20021;-71
2021/03/27 06:58:01;;;;;;;47.90;34.42;;;614.50;640.00;;;;;;5059451;28;20407;-73
2021/03/27 07:00:36;;;;;;;44.03;31.90;;;640.30;563.20;;;;;;5089323;28;20512;-74
2021/03/27 07:03:23;;;;;;;44.50;32.45;;;666.10;563.20;;;;;;5086576;28;20064;-74
2021/03/27 07:06:17;;;;;;;42.90;32.45;;;691.80;512.00;;;;;;5092405;28;20142;-73
2021/03/27 07:09:03;;;;;;;48.50;34.78;;;717.30;486.40;;;;;;5093445;28;20430;-65
2021/03/27 07:11:47;;;;;;;40.53;31.35;;;742.60;486.40;;;;;;5077263;28;20034;-71
2021/03/27 07:14:50;;;;;;;41.42;31.08;;;743.20;460.80;;;;;;5093214;28;20031;-67
2021/03/27 07:17:21;;;;;;;43.75;33.08;;;768.50;460.80;;;;;;5091047;28;20043;-67
2021/03/27 07:20:12;;;;;;;44.05;31.85;;;793.80;460.80;;;;;;5082228;28;20500;-70
2021/03/27 07:22:47;;;;;;;39.78;30.05;;;794.30;435.20;;;;;;5092318;28;20059;-72
2021/03/27 07:25:35;;;;;;;38.88;30.17;;;794.30;409.60;;;;;;5093120;28;20063;-67
2021/03/27 07:28:19;;;;;;;44.85;31.45;;;794.50;409.60;;;;;;5086980;28;20020;-71
2021/03/27 07:30:47;;;;;;;;;;;768.20;435.20;;;;;;5079172;28;20384;-66
2021/03/27 07:33:28;;;;;;;44.00;29.60;;;692.00;486.40;;;;;;5092397;28;20282;-69
2021/03/27 07:36:18;;;;;;;42.65;29.85;;;640.80;537.60;;;;;;5092921;28;20024;-70
2021/03/27 07:39:03;;;;;;;45.83;29.95;;;614.90;614.40;;;;;;5092028;28;20024;-72
2021/03/27 07:42:02;;;;;;;41.63;30.75;;;588.90;665.60;;;;;;5091382;28;20032;-71
2021/03/27 07:45:06;;;;;;;48.53;31.95;;;563.20;716.80;;;;;;5090491;28;20020;-68
2021/03/27 07:48:01;;;;;;;45.10;28.92;;;537.90;716.80;;;;;;5090973;28;20477;-68
2021/03/27 07:50:49;;;;;;;53.28;29.63;;;512.50;716.80;;;;;;5072214;28;20544;-64
2021/03/27 07:53:33;;;;;;;48.80;32.88;;;512.20;742.40;;;;;;5097489;28;20031;-63
2021/03/27 07:56:42;;;;;;;45.42;28.55;;;487.20;768.00;;;;;;5097679;28;20032;-69
2021/03/27 07:59:40;;;;;;;38.00;26.65;;;486.90;793.60;;;;;;5026777;28;20049;-66
2021/03/27 08:02:19;;;;;;;43.05;28.27;;;486.80;819.20;;;;;;5099113;28;20035;-64
2021/03/27 08:05:39;;;;;;;41.97;26.80;;;486.60;819.20;;;;;;5098533;28;20028;-71
2021/03/27 08:08:26;;;;;;;41.60;26.70;;;486.60;793.60;;;;;;5016376;28;20038;-70
2021/03/27 08:11:16;;;;;;;44.20;27.90;;;486.40;844.80;;;;;;5015963;28;20085;-69
2021/03/27 08:14:12;;;;;;;43.55;27.30;;;461.70;844.80;;;;;;5016229;28;20029;-70
2021/03/27 08:16:50;;;;;;;39.47;24.30;;;461.50;870.40;;;;;;4996631;28;20417;-69
2021/03/27 08:19:52;;;;;;;40.22;24.90;;;461.30;870.40;;;;;;4997115;28;20037;-71
2021/03/27 08:22:39;;;;;;;40.80;24.70;;;461.40;844.80;;;;;;5008651;28;20529;-64
2021/03/27 08:25:05;;;;;;;40.88;23.52;;;461.40;870.40;;;;;;5012899;28;20029;-71
2021/03/27 08:27:51;;;;;;;37.50;24.90;;;461.20;870.40;;;;;;5015054;28;20029;-67
2021/03/27 08:30:44;;;;;;;41.65;24.67;;;461.10;844.80;;;;;;4998266;28;20033;-71
2021/03/27 08:33:25;;;;;;;32.72;22.52;;;461.00;870.40;;;;;;5010571;28;20049;-71
2021/03/27 08:36:15;;;;;;;34.00;22.67;;;460.90;870.40;;;;;;5014179;28;20032;-70
2021/03/27 08:38:43;;;;;;;38.20;23.83;;;460.80;896.00;;;;;;5015546;28;20041;-70
2021/03/27 08:41:31;;;;;;;43.17;22.50;;;460.80;896.00;;;;;;5016667;28;20018;-70
2021/03/27 08:44:14;;;;;;;36.03;22.67;;;460.90;896.00;;;;;;5065076;28;20035;-64
2021/03/27 08:46:59;;;;;;;34.75;21.23;;;460.90;896.00;;;;;;5096509;28;20046;-71
2021/03/27 08:50:09;;;;;;;37.83;21.98;;;460.90;921.60;;;;;;5096571;28;20035;-70
2021/03/27 08:52:59;;;;;;;31.35;20.70;;;460.90;896.00;;;;;;5080589;28;20020;-66
2021/03/27 08:55:43;;;;;;;29.17;19.60;;;460.90;896.00;;;;;;5076480;28;20092;-63
2021/03/27 08:58:41;;;;;;;31.13;20.40;;;461.00;921.60;;;;;;5077150;28;20060;-67
2021/03/27 09:01:32;;;;;;;34.05;20.25;;;461.10;921.60;;;;;;5075930;28;20023;-66
2021/03/27 09:04:24;;;;;;;28.10;18.20;;;461.10;921.60;;;;;;5074265;28;20111;-64
2021/03/27 09:06:59;;;;;;;29.35;18.77;;;461.20;896.00;;;;;;5074372;28;20544;-70
2021/03/27 09:09:40;;;;;;;30.92;19.98;;;461.10;921.60;;;;;;5076033;28;20020;-63
2021/03/27 09:12:27;;;;;;;29.58;18.50;;;461.20;947.20;;;;;;5075187;28;20036;-70
2021/03/27 09:15:11;;;;;;;26.88;17.38;;;461.10;896.00;;;;;;5075409;28;20044;-66
2021/03/27 09:17:52;;;;;;;;;;;461.20;896.00;;;;;;5075509;28;20112;-68
2021/03/27 09:20:36;;;;;;;27.92;16.70;;;461.10;896.00;;;;;;5075567;28;19911;-68
2021/03/27 09:23:29;;;;;;;29.58;19.02;;;461.00;896.00;;;;;;5074843;28;20041;-70
2021/03/27 09:26:28;;;;;;;27.45;16.90;;;461.10;921.60;;;;;;5075289;28;20029;-69
2021/03/27 09:29:22;;;;;;;28.15;18.58;;;461.00;921.60;;;;;;5074982;28;20024;-69
2021/03/27 09:32:06;;;;;;;28.60;18.15;;;461.10;896.00;;;;;;5075172;28;20099;-69
2021/03/27 09:35:10;;;;;;;28.67;17.52;;;461.20;921.60;;;;;;5074866;28;20033;-69
2021/03/27 09:38:10;;;;;;;24.38;16.98;;;461.30;896.00;;;;;;5074975;28;20060;-69
2021/03/27 09:40:36;;;;;;;26.40;16.58;;;461.40;921.60;;;;;;5074999;28;20089;-71
2021/03/27 09:43:21;;;;;;;33.22;17.77;;;461.50;921.60;;;;;;5075071;28;20024;-71
2021/03/27 09:46:16;;;;;;;29.30;17.77;;;461.60;921.60;;;;;;5074899;28;20021;-69
2021/03/27 09:48:51;;;;;;;24.90;15.73;;;461.60;870.40;;;;;;5067045;28;20037;-70
2021/03/27 09:51:40;;;;;;;22.00;15.02;;;461.60;870.40;;;;;;5074748;28;20097;-72
2021/03/27 09:54:25;;;;;;;25.45;13.35;;;486.40;870.40;;;;;;5074528;28;20103;-70
2021/03/27 09:57:15;;;;;;;17.25;11.15;;;461.70;896.00;;;;;;5074658;28;20075;-70
2021/03/27 09:59:47;;;;;;;19.33;13.30;;;461.70;896.00;;;;;;5074764;28;20077;-70
2021/03/27 10:02:21;;;;;;;22.30;13.13;;;486.40;921.60;;;;;;5074732;28;20454;-66
2021/03/27 10:05:08;;;;;;;22.25;13.63;;;486.40;896.00;;;;;;5073086;28;20021;-65
2021/03/27 10:07:58;;;;;;;25.02;13.70;;;486.50;870.40;;;;;;5074547;28;20017;-70
2021/03/27 10:10:48;;;;;;;16.48;11.65;;;486.50;870.40;;;;;;5074250;28;20111;-70
2021/03/27 10:13:39;;;;;;;16.20;11.48;;;486.40;870.40;;;;;;5074137;28;20082;-68
2021/03/27 10:16:30;;;;;;;18.63;11.45;;;486.60;921.60;;;;;;5073987;28;20024;-66
2021/03/27 10:19:16;;;;;;;17.67;11.18;;;486.60;921.60;;;;;;5074196;28;20103;-71
2021/03/27 10:22:01;;;;;;;16.45;11.13;;;486.70;896.00;;;;;;5074023;28;20055;-71
2021/03/27 10:24:45;;;;;;;16.30;10.48;;;486.80;844.80;;;;;;5074014;28;20100;-63
2021/03/27 10:27:39;;;;;;;16.45;9.93;;;486.80;870.40;;;;;;5073958;28;20024;-71
2021/03/27 10:30:32;;;;;;;18.10;9.70;;;486.90;819.20;;;;;;5074099;28;20103;-63
2021/03/27 10:33:11;;;;;;;13.25;9.13;;;486.90;844.80;;;;;;5073763;28;20020;-70
2021/03/27 10:35:50;;;;;;;16.58;9.77;;;486.90;870.40;;;;;;5073732;28;20029;-70
2021/03/27 10:38:53;;;;;;;17.73;10.23;;;487.00;870.40;;;;;;5073738;28;20047;-70
2021/03/27 10:41:53;;;;;;;17.60;10.05;;;487.00;844.80;;;;;;5074037;28;20415;-71
2021/03/27 10:44:26;;;;;;;92.80;36.15;;;487.20;870.40;;;;;;5082232;28;20124;-70
2021/03/27 10:47:14;;;;;;;48.35;19.05;;;487.20;844.80;;;;;;5083045;28;20520;-66
2021/03/27 10:50:10;;;;;;;31.83;15.48;;;487.10;870.40;;;;;;5073597;28;20118;-66
2021/03/27 10:53:11;;;;;;;41.22;20.30;;;487.20;896.00;;;;;;5066056;28;20399;-71
2021/03/27 10:55:55;;;;;;;18.95;10.20;;;487.20;870.40;;;;;;5092446;28;20020;-71
2021/03/27 10:58:42;;;;;;;16.10;9.70;;;512.00;896.00;;;;;;5074273;28;20031;-74
2021/03/27 11:01:32;;;;;;;13.07;8.48;;;487.30;921.60;;;;;;5091538;28;20024;-74
2021/03/27 11:04:25;;;;;;;16.00;9.23;;;512.00;819.20;;;;;;5084067;28;20107;-74
2021/03/27 11:07:19;;;;;;;17.50;8.90;;;512.20;844.80;;;;;;5064889;28;20120;-75
2021/03/27 11:10:09;;;;;;;22.17;10.45;;;512.20;819.20;;;;;;5073383;28;20258;-72
2021/03/27 11:12:54;;;;;;;16.90;10.15;;;512.10;870.40;;;;;;5073025;28;20020;-71
2021/03/27 11:15:56;;;;;;;28.45;9.10;;;512.30;870.40;;;;;;5073314;28;20021;-71
2021/03/27 11:18:42;;;;;;;18.90;8.32;;;512.40;844.80;;;;;;5072812;28;20090;-72
2021/03/27 11:21:17;;;;;;;16.10;9.20;;;512.60;870.40;;;;;;5082279;28;20036;-71
2021/03/27 11:23:48;;;;;;;17.80;8.40;;;512.70;896.00;;;;;;5092999;28;20476;-67
2021/03/27 11:26:35;;;;;;;18.77;7.93;;;512.70;819.20;;;;;;5092668;28;20023;-64
2021/03/27 11:29:36;;;;;;;15.55;8.23;;;512.90;844.80;;;;;;5072484;28;20032;-64
2021/03/27 11:32:08;;;;;;;24.80;8.18;;;512.90;819.20;;;;;;5086070;28;20020;-67
2021/03/27 11:34:37;;;;;;;16.70;7.25;;;512.90;819.20;;;;;;5087330;28;20047;-69
2021/03/27 11:37:35;;;;;;;18.13;9.13;;;537.60;870.40;;;;;;5087759;28;20032;-72
2021/03/27 11:40:20;;;;;;;17.17;6.30;;;537.60;870.40;;;;;;5089712;28;20495;-72
2021/03/27 11:43:09;;;;;;;14.48;7.35;;;537.70;819.20;;;;;;5090920;28;20074;-72
2021/03/27 11:45:56;;;;;;;19.90;7.35;;;537.70;844.80;;;;;;5089505;28;20038;-71
2021/03/27 11:48:44;;;;;;;15.35;6.93;;;537.70;819.20;;;;;;5092176;28;20424;-71
2021/03/27 11:51:19;;;;;;;14.75;6.65;;;537.60;844.80;;;;;;5092059;28;20013;-71
2021/03/27 11:54:02;;;;;;;21.17;5.28;;;537.60;819.20;;;;;;5093111;28;20020;-72
2021/03/27 11:56:46;;;;;;;21.73;5.75;;;512.90;793.60;;;;;;5089366;28;20028;-64
2021/03/27 12:02:43;;;;;;;20.67;5.00;;;537.60;870.40;;;;;;5089488;28;20035;-67
2021/03/27 12:05:19;;;;;;;8.20;4.43;;;537.70;896.00;;;;;;5092696;28;20027;-67
2021/03/27 12:08:15;;;;;;;21.05;5.05;;;537.60;844.80;;;;;;5091951;28;20420;-72
2021/03/27 12:11:19;;;;;;;12.52;5.10;;;537.80;896.00;;;;;;5087080;28;20422;-71
2021/03/27 12:14:23;;;;;;;;;;;537.80;896.00;;;;;;5044527;28;20036;-73
2021/03/27 12:16:59;;;;;;;13.10;6.00;;;537.80;896.00;;;;;;5030211;28;19920;-71
2021/03/27 12:19:47;;;;;;;29.23;5.95;;;537.60;844.80;;;;;;5030400;28;20108;-63
2021/03/27 12:22:37;;;;;;;17.52;5.70;;;537.60;870.40;;;;;;5059054;28;20085;-66
2021/03/27 12:25:22;;;;;;;10.82;5.18;;;537.60;870.40;;;;;;5072380;28;20073;-70
2021/03/27 12:28:04;;;;;;;9.80;5.15;;;512.90;844.80;;;;;;5078488;28;20469;-71
2021/03/27 12:30:47;;;;;;;10.35;5.90;;;512.90;844.80;;;;;;5079689;28;20111;-71
2021/03/27 12:33:16;;;;;;;10.95;5.20;;;512.80;896.00;;;;;;5089070;28;20024;-68
2021/03/27 12:36:07;;;;;;;9.50;5.63;;;512.70;870.40;;;;;;5091507;28;20028;-72
2021/03/27 12:38:57;;;;;;;12.48;5.43;;;512.80;870.40;;;;;;5091076;28;20480;-66
2021/03/27 12:41:32;;;;;;;11.88;5.75;;;512.70;819.20;;;;;;5076008;28;20043;-72
2021/03/27 12:44:03;;;;;;;15.40;6.10;;;512.70;844.80;;;;;;5094139;28;20020;-70
2021/03/27 12:46:48;;;;;;;9.65;5.32;;;512.80;870.40;;;;;;5095633;28;20512;-72
2021/03/27 12:49:42;;;;;;;9.05;5.30;;;512.80;870.40;;;;;;5094066;28;20392;-63
2021/03/27 12:52:25;;;;;;;11.95;5.45;;;512.70;870.40;;;;;;5093563;28;20039;-71
2021/03/27 12:55:03;;;;;;;10.15;4.78;;;512.80;870.40;;;;;;5094009;28;20123;-71
2021/03/27 12:57:35;;;;;;;14.32;4.65;;;512.90;870.40;;;;;;5084349;28;20029;-73
2021/03/27 13:00:38;;;;;;;9.57;4.15;;;537.60;921.60;;;;;;5095987;28;20024;-67
2021/03/27 13:03:38;;;;;;;11.05;4.13;;;537.60;947.20;;;;;;5086290;28;20024;-70
2021/03/27 13:06:25;;;;;;;8.55;4.55;;;537.60;947.20;;;;;;5096012;28;20545;-67
2021/03/27 13:09:12;;;;;;;12.05;5.18;;;537.60;921.60;;;;;;5084802;28;20350;-63
2021/03/27 13:11:56;;;;;;;10.25;4.38;;;512.90;870.40;;;;;;5093736;28;20400;-62
2021/03/27 13:14:39;;;;;;;18.17;4.60;;;512.70;844.80;;;;;;5092227;28;20023;-69
2021/03/27 13:17:11;;;;;;;;;;;512.70;844.80;;;;;;5089820;28;20551;-69
2021/03/27 13:19:54;;;;;;;11.65;5.78;;;512.80;870.40;;;;;;5094369;28;19908;-68
2021/03/27 13:22:22;;;;;;;13.85;5.82;;;512.80;870.40;;;;;;5093628;28;20152;-67
2021/03/27 13:25:03;;;;;;;25.33;5.57;;;512.70;844.80;;;;;;5093608;28;20028;-67
2021/03/27 13:27:34;;;;;;;36.95;9.52;;;512.70;844.80;;;;;;5093740;28;20020;-66
2021/03/27 13:30:20;;;;;;;33.28;15.75;;;512.70;844.80;;;;;;5094723;28;20399;-70
2021/03/27 13:32:58;;;;;;;23.92;11.95;;;512.60;870.40;;;;;;5095368;28;20031;-70
2021/03/27 13:36:00;;;;;;;31.42;19.73;;;512.60;870.40;;;;;;5093914;28;20028;-64
2021/03/27 13:38:41;;;;;;;26.10;12.68;;;512.70;896.00;;;;;;5000577;28;20061;-69